Time;durP1;ratioP1;P1;durP2;ratioP2;P2;SDS_P1;SDS_P2;PMS_P1;PMS_P2;Temp;Humidity;BMP_temperature;BMP_pressure;BME280_temperature;BME280_humidity;BME280_pressure;Samples;Min_cycle;Max_cycle;Signal;HPM_P1;HPM_P2
2022/01/31 00:00:44;;;;;;;48.72;30.17;;;;;;;;;;143737;582;46012;-84
2022/01/31 00:03:14;;;;;;;52.83;32.20;;;;;;;;;;143730;615;47020;-83
2022/01/31 00:05:44;;;;;;;57.00;35.72;;;;;;;;;;143732;599;47020;-84
2022/01/31 00:08:11;;;;;;;50.33;34.22;;;;;;;;;;143735;594;46014;-83
2022/01/31 00:10:38;;;;;;;55.50;37.67;;;;;;;;;;143735;633;46013;-82
2022/01/31 00:13:08;;;;;;;39.38;27.70;;;;;;;;;;143734;565;47022;-84
2022/01/31 00:15:42;;;;;;;32.80;22.52;;;;;;;;;;143733;577;46020;-84
2022/01/31 00:18:09;;;;;;;27.48;19.80;;;;;;;;;;143736;597;46021;-83
2022/01/31 00:20:37;;;;;;;32.55;21.40;;;;;;;;;;143739;610;46012;-83
2022/01/31 00:23:03;;;;;;;29.67;20.40;;;;;;;;;;143735;563;46022;-83
2022/01/31 00:25:30;;;;;;;39.97;22.42;;;;;;;;;;143734;608;46013;-83
2022/01/31 00:27:58;;;;;;;35.20;20.83;;;;;;;;;;143733;578;47020;-84
2022/01/31 00:30:25;;;;;;;31.52;20.42;;;;;;;;;;143736;572;46012;-82
2022/01/31 00:32:52;;;;;;;35.28;19.17;;;;;;;;;;143734;586;46022;-83
2022/01/31 00:35:19;;;;;;;33.88;21.62;;;;;;;;;;143733;574;46012;-83
2022/01/31 00:37:46;;;;;;;30.75;18.65;;;;;;;;;;143735;563;46020;-83
2022/01/31 00:40:14;;;;;;;24.42;17.00;;;;;;;;;;143736;684;46013;-82
2022/01/31 00:42:41;;;;;;;26.98;17.48;;;;;;;;;;143730;564;49014;-83
2022/01/31 00:45:17;;;;;;;29.25;18.30;;;;;;;;;;143735;598;46020;-83
2022/01/31 00:47:57;;;;;;;26.50;16.37;;;;;;;;;;143736;566;46021;-84
2022/01/31 00:50:24;;;;;;;29.00;19.48;;;;;;;;;;143735;565;46012;-81
2022/01/31 00:52:51;;;;;;;26.20;18.77;;;;;;;;;;143732;593;47022;-82
2022/01/31 00:55:19;;;;;;;24.87;18.42;;;;;;;;;;143733;564;46013;-83
2022/01/31 00:57:46;;;;;;;18.67;13.88;;;;;;;;;;143733;570;47020;-83
2022/01/31 01:00:14;;;;;;;13.90;9.80;;;;;;;;;;143738;582;46012;-82
2022/01/31 01:02:41;;;;;;;14.90;9.13;;;;;;;;;;143737;605;46022;-82
2022/01/31 01:05:09;;;;;;;15.00;7.95;;;;;;;;;;143734;592;46012;-82
2022/01/31 01:07:36;;;;;;;14.57;10.13;;;;;;;;;;143736;571;46020;-82
2022/01/31 01:10:04;;;;;;;10.43;7.03;;;;;;;;;;143736;627;46019;-82
2022/01/31 01:12:31;;;;;;;9.98;7.22;;;;;;;;;;143734;615;46022;-82
2022/01/31 01:14:58;;;;;;;14.38;5.53;;;;;;;;;;143734;600;46914;-83
2022/01/31 01:17:25;;;;;;;8.25;5.82;;;;;;;;;;143734;619;46021;-83
2022/01/31 01:19:52;;;;;;;8.23;4.75;;;;;;;;;;143737;564;46012;-85
2022/01/31 01:22:21;;;;;;;7.10;3.90;;;;;;;;;;143733;614;47022;-82
2022/01/31 01:24:48;;;;;;;7.07;4.07;;;;;;;;;;143735;617;46013;-82
2022/01/31 01:27:19;;;;;;;5.57;4.45;;;;;;;;;;143735;649;46020;-83
2022/01/31 01:29:47;;;;;;;6.80;5.03;;;;;;;;;;143737;601;46018;-83
2022/01/31 01:32:14;;;;;;;13.32;8.48;;;;;;;;;;143733;577;47021;-83
2022/01/31 01:34:41;;;;;;;12.00;7.95;;;;;;;;;;143734;573;46012;-84
2022/01/31 01:37:09;;;;;;;13.07;7.97;;;;;;;;;;143734;603;47020;-83
2022/01/31 01:39:45;;;;;;;13.48;9.18;;;;;;;;;;143738;612;46048;-82
2022/01/31 01:42:12;;;;;;;14.93;9.65;;;;;;;;;;143730;597;47023;-82
2022/01/31 01:44:45;;;;;;;15.38;9.35;;;;;;;;;;143736;564;46020;-82
2022/01/31 01:47:17;;;;;;;17.90;10.77;;;;;;;;;;143736;632;46015;-83
2022/01/31 01:49:45;;;;;;;17.58;9.40;;;;;;;;;;143738;571;46026;-82
2022/01/31 01:52:15;;;;;;;13.95;9.43;;;;;;;;;;143733;591;47022;-83
2022/01/31 01:54:51;;;;;;;14.07;8.55;;;;;;;;;;143735;575;46021;-83
2022/01/31 01:57:20;;;;;;;12.05;7.70;;;;;;;;;;143736;613;46020;-83
2022/01/31 01:59:47;;;;;;;11.18;8.27;;;;;;;;;;143736;591;46012;-83
2022/01/31 02:02:14;;;;;;;15.90;8.75;;;;;;;;;;143734;585;47022;-83
2022/01/31 02:04:43;;;;;;;14.27;8.55;;;;;;;;;;143733;573;46913;-82
2022/01/31 02:07:12;;;;;;;10.00;6.35;;;;;;;;;;143735;596;46020;-83
2022/01/31 02:09:45;;;;;;;9.13;4.43;;;;;;;;;;143737;587;46020;-82
2022/01/31 02:12:15;;;;;;;10.18;5.32;;;;;;;;;;143737;574;46022;-82
2022/01/31 02:14:42;;;;;;;6.72;4.50;;;;;;;;;;143735;609;46012;-82
2022/01/31 02:17:09;;;;;;;13.60;8.70;;;;;;;;;;143736;583;46021;-83
2022/01/31 02:19:37;;;;;;;15.70;7.30;;;;;;;;;;143738;585;46020;-83
2022/01/31 02:22:07;;;;;;;17.12;5.97;;;;;;;;;;143734;565;47022;-83
2022/01/31 02:24:34;;;;;;;9.07;6.82;;;;;;;;;;143733;590;46013;-83
2022/01/31 02:27:03;;;;;;;14.60;6.28;;;;;;;;;;143735;624;46020;-82
2022/01/31 02:29:32;;;;;;;13.52;7.28;;;;;;;;;;143737;590;46012;-83
2022/01/31 02:31:59;;;;;;;9.77;5.18;;;;;;;;;;143735;577;47022;-82
2022/01/31 02:34:26;;;;;;;9.52;4.55;;;;;;;;;;143738;643;46012;-83
2022/01/31 02:36:54;;;;;;;8.25;4.18;;;;;;;;;;143736;598;46020;-82
2022/01/31 02:39:21;;;;;;;7.07;4.37;;;;;;;;;;143737;598;46013;-82
2022/01/31 02:41:48;;;;;;;13.50;3.55;;;;;;;;;;143733;659;47023;-82
2022/01/31 02:44:15;;;;;;;8.60;4.28;;;;;;;;;;143737;607;46012;-82
2022/01/31 02:46:49;;;;;;;9.52;3.90;;;;;;;;;;143737;600;46021;-82
2022/01/31 02:49:19;;;;;;;7.43;3.10;;;;;;;;;;143737;564;46012;-81
2022/01/31 02:51:49;;;;;;;11.15;4.28;;;;;;;;;;143732;572;46022;-83
2022/01/31 02:54:16;;;;;;;15.18;4.43;;;;;;;;;;143732;577;46013;-82
2022/01/31 02:56:43;;;;;;;5.07;3.62;;;;;;;;;;143736;631;46020;-82
2022/01/31 02:59:10;;;;;;;8.05;3.05;;;;;;;;;;143736;632;46012;-82
2022/01/31 03:01:37;;;;;;;7.65;3.60;;;;;;;;;;143734;610;47022;-83
2022/01/31 03:04:07;;;;;;;7.50;4.45;;;;;;;;;;143734;579;46012;-82
2022/01/31 03:06:37;;;;;;;9.68;4.65;;;;;;;;;;143736;586;47020;-82
2022/01/31 03:09:04;;;;;;;7.22;5.15;;;;;;;;;;143736;566;46019;-82
2022/01/31 03:11:33;;;;;;;9.88;6.00;;;;;;;;;;143734;581;47023;-83
2022/01/31 03:14:00;;;;;;;12.02;6.72;;;;;;;;;;143732;603;46012;-82
2022/01/31 03:16:26;;;;;;;16.02;6.15;;;;;;;;;;143737;658;46014;-84
2022/01/31 03:18:53;;;;;;;15.00;6.60;;;;;;;;;;143734;621;46012;-83
2022/01/31 03:21:20;;;;;;;14.80;6.97;;;;;;;;;;143732;581;47022;-83
2022/01/31 03:23:50;;;;;;;8.73;5.82;;;;;;;;;;143733;603;46021;-82
2022/01/31 03:26:17;;;;;;;10.93;6.65;;;;;;;;;;143735;598;46020;-82
2022/01/31 03:28:46;;;;;;;10.68;6.93;;;;;;;;;;143735;582;46012;-83
2022/01/31 03:31:13;;;;;;;13.18;7.47;;;;;;;;;;143731;569;46021;-82
2022/01/31 03:33:41;;;;;;;15.13;7.03;;;;;;;;;;143732;619;46020;-83
2022/01/31 03:36:08;;;;;;;11.02;6.62;;;;;;;;;;143734;633;46020;-83
2022/01/31 03:38:40;;;;;;;10.60;6.00;;;;;;;;;;143734;603;46013;-81
2022/01/31 03:41:08;;;;;;;11.25;6.68;;;;;;;;;;143732;605;46047;-83
2022/01/31 03:43:35;;;;;;;10.43;6.32;;;;;;;;;;143734;563;46020;-82
2022/01/31 03:46:01;;;;;;;10.32;5.80;;;;;;;;;;143735;570;46021;-82
2022/01/31 03:48:29;;;;;;;7.97;5.82;;;;;;;;;;143734;609;46012;-82
2022/01/31 03:50:57;;;;;;;10.27;5.47;;;;;;;;;;143731;570;47020;-84
2022/01/31 03:53:24;;;;;;;13.00;6.87;;;;;;;;;;143733;583;46012;-82
2022/01/31 03:55:52;;;;;;;12.32;7.53;;;;;;;;;;143733;601;46020;-81
2022/01/31 03:58:19;;;;;;;19.15;7.95;;;;;;;;;;143735;585;46012;-82
2022/01/31 04:00:46;;;;;;;15.70;7.68;;;;;;;;;;143733;587;46021;-82
2022/01/31 04:03:13;;;;;;;15.57;10.02;;;;;;;;;;143729;609;46012;-81
2022/01/31 04:05:40;;;;;;;21.83;13.50;;;;;;;;;;143734;618;46020;-82
2022/01/31 04:08:07;;;;;;;19.00;10.27;;;;;;;;;;143734;644;46019;-81
2022/01/31 04:10:36;;;;;;;28.23;11.93;;;;;;;;;;143733;616;46039;-83
2022/01/31 04:13:06;;;;;;;19.87;9.48;;;;;;;;;;143732;564;46012;-82
2022/01/31 04:15:36;;;;;;;13.32;4.37;;;;;;;;;;143733;605;46021;-81
2022/01/31 04:18:03;;;;;;;14.45;5.60;;;;;;;;;;143734;585;46012;-82
2022/01/31 04:20:30;;;;;;;23.27;7.03;;;;;;;;;;143733;589;46022;-81
2022/01/31 04:23:05;;;;;;;17.98;6.62;;;;;;;;;;143731;572;46020;-82
2022/01/31 04:25:51;;;;;;;12.60;5.00;;;;;;;;;;143732;646;47021;-81
2022/01/31 04:28:31;;;;;;;12.15;4.75;;;;;;;;;;143734;569;46012;-82
2022/01/31 04:31:00;;;;;;;22.85;6.45;;;;;;;;;;143732;663;47021;-83
2022/01/31 04:33:29;;;;;;;16.83;7.18;;;;;;;;;;143731;565;46012;-82
2022/01/31 04:35:55;;;;;;;11.23;4.60;;;;;;;;;;143731;604;47020;-83
2022/01/31 04:38:23;;;;;;;9.80;4.47;;;;;;;;;;143734;598;46013;-83
2022/01/31 04:40:49;;;;;;;10.88;4.22;;;;;;;;;;143731;609;47023;-82
2022/01/31 04:43:16;;;;;;;15.15;4.43;;;;;;;;;;143733;564;46012;-82
2022/01/31 04:45:47;;;;;;;17.37;4.72;;;;;;;;;;143730;564;47021;-83
2022/01/31 04:48:19;;;;;;;12.30;3.33;;;;;;;;;;143734;579;46018;-82
2022/01/31 04:50:49;;;;;;;14.98;4.47;;;;;;;;;;143732;640;46022;-83
2022/01/31 04:53:16;;;;;;;14.13;3.80;;;;;;;;;;143734;682;46012;-82
2022/01/31 04:55:43;;;;;;;11.30;3.78;;;;;;;;;;143732;571;47020;-82
2022/01/31 04:58:10;;;;;;;14.35;4.37;;;;;;;;;;143737;626;46012;-83
2022/01/31 05:00:38;;;;;;;13.35;3.70;;;;;;;;;;143731;615;47020;-84
2022/01/31 05:03:11;;;;;;;22.87;4.60;;;;;;;;;;143733;564;46012;-83
2022/01/31 05:05:38;;;;;;;10.02;3.42;;;;;;;;;;143734;614;47020;-83
2022/01/31 05:08:05;;;;;;;13.60;3.83;;;;;;;;;;143733;589;46013;-83
2022/01/31 05:10:34;;;;;;;14.93;3.30;;;;;;;;;;143734;585;47023;-82
2022/01/31 05:13:01;;;;;;;10.60;3.10;;;;;;;;;;143732;564;46012;-83
2022/01/31 05:15:28;;;;;;;11.85;3.22;;;;;;;;;;143734;577;46021;-83
2022/01/31 05:17:55;;;;;;;10.80;3.80;;;;;;;;;;143734;564;46012;-83
2022/01/31 05:20:22;;;;;;;8.63;3.65;;;;;;;;;;143732;598;47020;-82
2022/01/31 05:22:49;;;;;;;16.50;4.47;;;;;;;;;;143731;605;46013;-83
2022/01/31 05:25:16;;;;;;;15.13;3.65;;;;;;;;;;143733;564;46020;-83
2022/01/31 05:27:43;;;;;;;8.15;4.00;;;;;;;;;;143735;608;46012;-83
2022/01/31 05:30:11;;;;;;;11.70;4.47;;;;;;;;;;143732;587;46022;-84
2022/01/31 05:32:37;;;;;;;16.65;7.57;;;;;;;;;;143730;575;46012;-82
2022/01/31 05:35:05;;;;;;;10.05;4.85;;;;;;;;;;143734;630;46018;-83
2022/01/31 05:37:35;;;;;;;13.43;5.50;;;;;;;;;;143733;564;46020;-82
2022/01/31 05:40:03;;;;;;;24.70;5.22;;;;;;;;;;143731;600;46023;-82
2022/01/31 05:42:31;;;;;;;11.95;3.65;;;;;;;;;;143730;578;47012;-84
2022/01/31 05:44:57;;;;;;;10.57;4.28;;;;;;;;;;143733;652;46021;-82
2022/01/31 05:47:24;;;;;;;12.80;4.35;;;;;;;;;;143735;570;46012;-83
2022/01/31 05:49:51;;;;;;;11.57;3.30;;;;;;;;;;143732;566;47020;-83
2022/01/31 05:52:18;;;;;;;11.38;4.60;;;;;;;;;;143732;579;46013;-83
2022/01/31 05:54:45;;;;;;;12.57;4.40;;;;;;;;;;143736;609;47020;-82
2022/01/31 05:57:11;;;;;;;11.48;3.20;;;;;;;;;;143735;626;46020;-82
2022/01/31 05:59:42;;;;;;;11.65;3.67;;;;;;;;;;143732;641;46021;-82
2022/01/31 06:02:10;;;;;;;14.95;4.60;;;;;;;;;;143732;648;46012;-83
2022/01/31 06:04:40;;;;;;;14.10;5.72;;;;;;;;;;143734;660;46020;-82
2022/01/31 06:07:08;;;;;;;17.20;4.53;;;;;;;;;;143736;586;46020;-82
2022/01/31 06:09:36;;;;;;;9.60;4.18;;;;;;;;;;143736;622;46023;-83
2022/01/31 06:12:04;;;;;;;11.40;5.00;;;;;;;;;;143734;576;46012;-82
2022/01/31 06:14:32;;;;;;;16.40;5.72;;;;;;;;;;143732;604;46020;-83
2022/01/31 06:16:59;;;;;;;12.88;5.43;;;;;;;;;;143737;570;46018;-81
2022/01/31 06:19:26;;;;;;;8.90;4.68;;;;;;;;;;143733;596;46022;-81
2022/01/31 06:21:53;;;;;;;14.85;4.12;;;;;;;;;;143732;571;46012;-82
2022/01/31 06:24:20;;;;;;;12.73;4.15;;;;;;;;;;143734;593;46021;-83
2022/01/31 06:27:02;;;;;;;8.50;3.30;;;;;;;;;;143734;621;46012;-82
2022/01/31 06:29:28;;;;;;;11.30;5.35;;;;;;;;;;143733;564;47021;-82
2022/01/31 06:32:05;;;;;;;10.63;5.57;;;;;;;;;;143732;610;46012;-81
2022/01/31 06:34:32;;;;;;;18.37;5.53;;;;;;;;;;143735;569;46020;-82
2022/01/31 06:37:02;;;;;;;11.63;5.72;;;;;;;;;;143735;581;46020;-80
2022/01/31 06:39:29;;;;;;;24.65;7.57;;;;;;;;;;143732;595;46023;-79
2022/01/31 06:41:56;;;;;;;10.85;5.90;;;;;;;;;;143736;649;46012;-79
2022/01/31 06:44:22;;;;;;;30.50;15.82;;;;;;;;;;143734;591;46015;-80
2022/01/31 06:46:49;;;;;;;18.60;9.57;;;;;;;;;;143733;603;47012;-79
2022/01/31 06:49:16;;;;;;;16.80;8.88;;;;;;;;;;143733;627;46047;-80
2022/01/31 06:51:43;;;;;;;11.57;6.45;;;;;;;;;;143731;592;46013;-79
2022/01/31 06:54:14;;;;;;;21.08;6.70;;;;;;;;;;143734;569;46014;-79
2022/01/31 06:56:43;;;;;;;16.65;5.80;;;;;;;;;;143738;575;45020;-79
2022/01/31 06:59:10;;;;;;;19.10;5.40;;;;;;;;;;143731;592;47022;-79
2022/01/31 07:01:36;;;;;;;154.80;87.07;;;;;;;;;;143731;571;46012;-79
2022/01/31 07:04:03;;;;;;;23.40;11.77;;;;;;;;;;143733;585;46020;-79
2022/01/31 07:06:32;;;;;;;11.07;5.90;;;;;;;;;;143731;635;47021;-79
2022/01/31 07:09:00;;;;;;;22.27;7.35;;;;;;;;;;143733;567;46023;-80
2022/01/31 07:11:31;;;;;;;21.87;7.85;;;;;;;;;;143730;748;46012;-80
2022/01/31 07:16:48;;;;;;;12.48;4.65;;;;;;;;;;143733;578;46012;-79
2022/01/31 07:19:29;;;;;;;27.10;4.90;;;;;;;;;;143734;633;46022;-81
2022/01/31 07:22:04;;;;;;;12.15;5.30;;;;;;;;;;143731;590;46916;-80
2022/01/31 07:24:43;;;;;;;12.48;4.68;;;;;;;;;;143733;609;47020;-79
2022/01/31 07:27:10;;;;;;;9.80;4.50;;;;;;;;;;143736;593;46012;-80
2022/01/31 07:29:37;;;;;;;10.75;4.80;;;;;;;;;;143731;577;47022;-80
2022/01/31 07:32:04;;;;;;;8.25;5.53;;;;;;;;;;143734;636;45916;-78
2022/01/31 07:34:32;;;;;;;12.37;5.87;;;;;;;;;;143733;600;46020;-79
2022/01/31 07:36:59;;;;;;;14.20;5.93;;;;;;;;;;143734;579;46013;-79
2022/01/31 07:39:28;;;;;;;15.23;6.95;;;;;;;;;;143729;577;47023;-79
2022/01/31 07:41:58;;;;;;;14.30;6.57;;;;;;;;;;143732;611;46014;-79
2022/01/31 07:44:24;;;;;;;11.27;5.60;;;;;;;;;;143736;588;46021;-79
2022/01/31 07:46:52;;;;;;;15.27;7.20;;;;;;;;;;143737;589;46042;-79
2022/01/31 07:49:21;;;;;;;13.15;5.18;;;;;;;;;;143732;583;46022;-80
2022/01/31 07:51:49;;;;;;;11.68;4.30;;;;;;;;;;143733;566;46012;-80
2022/01/31 07:54:17;;;;;;;7.97;4.30;;;;;;;;;;143733;606;47010;-79
2022/01/31 07:56:44;;;;;;;10.60;4.43;;;;;;;;;;143734;588;46012;-79
2022/01/31 07:59:11;;;;;;;9.75;4.53;;;;;;;;;;143731;575;47021;-79
2022/01/31 08:01:41;;;;;;;10.75;5.50;;;;;;;;;;143732;573;46012;-81
2022/01/31 08:04:09;;;;;;;13.18;4.43;;;;;;;;;;143734;585;46042;-79
2022/01/31 08:06:37;;;;;;;9.43;3.70;;;;;;;;;;143736;589;46019;-79
2022/01/31 08:09:08;;;;;;;8.23;4.00;;;;;;;;;;143732;569;47023;-79
2022/01/31 08:11:36;;;;;;;9.00;4.47;;;;;;;;;;143732;566;46020;-79
2022/01/31 08:14:09;;;;;;;18.60;5.15;;;;;;;;;;143733;634;46021;-80
2022/01/31 08:16:37;;;;;;;19.15;4.12;;;;;;;;;;143734;629;47020;-79
2022/01/31 08:19:08;;;;;;;8.93;3.65;;;;;;;;;;143732;576;46022;-79
2022/01/31 08:21:38;;;;;;;11.18;4.85;;;;;;;;;;143732;642;46013;-80
2022/01/31 08:24:07;;;;;;;11.38;4.03;;;;;;;;;;143734;575;46020;-79
2022/01/31 08:26:34;;;;;;;12.75;6.00;;;;;;;;;;143735;590;46018;-79
2022/01/31 08:29:15;;;;;;;6.95;3.87;;;;;;;;;;143732;610;46021;-79
2022/01/31 08:31:42;;;;;;;15.93;4.72;;;;;;;;;;143735;584;46917;-80
2022/01/31 08:34:23;;;;;;;8.82;4.10;;;;;;;;;;143735;737;46020;-79
2022/01/31 08:36:50;;;;;;;7.68;4.32;;;;;;;;;;143735;571;46020;-79
2022/01/31 08:39:21;;;;;;;7.75;3.85;;;;;;;;;;143734;576;46023;-79
2022/01/31 08:41:56;;;;;;;9.93;3.42;;;;;;;;;;143733;569;46012;-79
2022/01/31 08:44:23;;;;;;;10.05;3.80;;;;;;;;;;143733;564;46021;-78
2022/01/31 08:46:53;;;;;;;8.70;3.72;;;;;;;;;;143733;634;46012;-79
2022/01/31 08:49:20;;;;;;;8.95;3.30;;;;;;;;;;143731;720;47022;-79
2022/01/31 08:51:46;;;;;;;8.55;3.28;;;;;;;;;;143734;571;46014;-79
2022/01/31 08:54:19;;;;;;;12.77;4.57;;;;;;;;;;143735;624;46020;-79
2022/01/31 08:56:46;;;;;;;6.87;3.95;;;;;;;;;;143735;738;46012;-78
2022/01/31 08:59:17;;;;;;;6.05;3.35;;;;;;;;;;143733;635;46015;-79
2022/01/31 09:01:51;;;;;;;13.20;5.32;;;;;;;;;;143731;572;46012;-79
2022/01/31 09:04:41;;;;;;;6.85;3.67;;;;;;;;;;143734;590;46020;-79
2022/01/31 09:07:11;;;;;;;12.88;3.67;;;;;;;;;;143736;572;46012;-80
2022/01/31 09:09:37;;;;;;;10.57;4.50;;;;;;;;;;143732;715;46014;-79
2022/01/31 09:12:07;;;;;;;12.73;3.83;;;;;;;;;;143732;600;46012;-79
2022/01/31 09:14:34;;;;;;;9.27;4.82;;;;;;;;;;143734;570;46021;-78
2022/01/31 09:17:02;;;;;;;16.52;8.07;;;;;;;;;;143735;614;46012;-78
2022/01/31 09:19:28;;;;;;;7.35;5.10;;;;;;;;;;143730;612;47022;-79
2022/01/31 09:21:55;;;;;;;14.60;8.05;;;;;;;;;;143733;612;46021;-79
2022/01/31 09:24:22;;;;;;;11.30;6.05;;;;;;;;;;143734;588;46020;-80
2022/01/31 09:26:49;;;;;;;17.42;7.20;;;;;;;;;;143735;610;46012;-77
2022/01/31 09:29:17;;;;;;;14.85;6.22;;;;;;;;;;143734;592;46022;-79
2022/01/31 09:31:44;;;;;;;13.38;6.45;;;;;;;;;;143735;629;46012;-80
2022/01/31 09:34:15;;;;;;;10.88;4.68;;;;;;;;;;143735;591;46020;-80
2022/01/31 09:36:43;;;;;;;7.05;3.62;;;;;;;;;;143738;604;45021;-79
2022/01/31 09:39:09;;;;;;;8.50;4.47;;;;;;;;;;143733;569;46022;-80
2022/01/31 09:41:40;;;;;;;8.70;4.25;;;;;;;;;;143734;566;46012;-80
2022/01/31 09:44:26;;;;;;;9.88;5.05;;;;;;;;;;143736;584;46021;-80
2022/01/31 09:47:17;;;;;;;8.18;3.75;;;;;;;;;;143739;574;46018;-80
2022/01/31 09:49:44;;;;;;;9.90;4.87;;;;;;;;;;143734;575;46037;-80
2022/01/31 09:52:13;;;;;;;8.27;4.10;;;;;;;;;;143732;662;46013;-80
2022/01/31 09:54:42;;;;;;;9.82;3.70;;;;;;;;;;143731;614;47020;-81
2022/01/31 09:57:10;;;;;;;6.50;3.85;;;;;;;;;;143736;579;46012;-80
2022/01/31 09:59:36;;;;;;;8.07;4.10;;;;;;;;;;143732;573;47023;-80
2022/01/31 10:02:15;;;;;;;8.77;4.25;;;;;;;;;;143734;564;46020;-81
2022/01/31 10:04:48;;;;;;;12.32;4.62;;;;;;;;;;143732;590;47020;-80
2022/01/31 10:07:16;;;;;;;7.50;4.37;;;;;;;;;;143734;573;46021;-80
2022/01/31 10:09:46;;;;;;;12.90;4.97;;;;;;;;;;143731;596;47022;-79
2022/01/31 10:18:00;;;;;;;13.45;5.10;;;;;;;;;;143736;616;46012;-80
2022/01/31 10:20:29;;;;;;;9.52;4.37;;;;;;;;;;143733;594;46022;-79
2022/01/31 10:23:12;;;;;;;9.18;3.72;;;;;;;;;;143732;575;46012;-79
2022/01/31 10:25:40;;;;;;;8.32;3.92;;;;;;;;;;143735;590;46014;-80
2022/01/31 10:28:15;;;;;;;11.05;5.22;;;;;;;;;;143735;641;46013;-78
2022/01/31 10:30:44;;;;;;;18.62;7.80;;;;;;;;;;143733;636;47023;-81
2022/01/31 10:33:12;;;;;;;16.98;5.22;;;;;;;;;;143732;569;46012;-79
2022/01/31 10:35:41;;;;;;;15.50;9.70;;;;;;;;;;143734;597;46021;-79
2022/01/31 10:38:16;;;;;;;11.30;6.10;;;;;;;;;;143735;636;46018;-79
2022/01/31 10:52:08;;;;;;;13.07;4.15;;;;;;;;;;143731;569;46908;-78
2022/01/31 10:54:40;;;;;;;11.10;5.00;;;;;;;;;;143732;569;46012;-78
2022/01/31 10:57:21;;;;;;;7.50;4.70;;;;;;;;;;143733;583;47020;-78
2022/01/31 10:59:49;;;;;;;18.85;5.87;;;;;;;;;;143736;565;46012;-79
2022/01/31 11:02:27;;;;;;;9.15;5.12;;;;;;;;;;143734;642;46022;-79
2022/01/31 11:04:54;;;;;;;8.73;3.90;;;;;;;;;;143733;570;46021;-79
2022/01/31 11:07:29;;;;;;;10.02;5.10;;;;;;;;;;143732;579;46021;-79
2022/01/31 11:09:56;;;;;;;11.73;5.37;;;;;;;;;;143737;581;46012;-81
2022/01/31 11:12:23;;;;;;;7.70;3.78;;;;;;;;;;143733;622;46022;-79
2022/01/31 11:14:53;;;;;;;7.47;3.95;;;;;;;;;;143733;628;46012;-81
2022/01/31 11:17:19;;;;;;;7.30;3.42;;;;;;;;;;143735;592;46020;-80
2022/01/31 11:19:54;;;;;;;8.70;4.35;;;;;;;;;;143736;585;46013;-80
2022/01/31 11:22:36;;;;;;;9.57;4.75;;;;;;;;;;143732;581;47023;-79
2022/01/31 11:25:09;;;;;;;6.43;3.42;;;;;;;;;;143733;574;46012;-80
2022/01/31 11:27:37;;;;;;;5.78;3.45;;;;;;;;;;143735;600;46020;-80
2022/01/31 11:30:09;;;;;;;6.35;3.67;;;;;;;;;;143736;693;46021;-80
2022/01/31 11:32:41;;;;;;;6.90;4.15;;;;;;;;;;143735;626;46022;-79
2022/01/31 11:35:08;;;;;;;7.93;3.97;;;;;;;;;;143735;586;46013;-81
2022/01/31 11:37:37;;;;;;;7.85;3.67;;;;;;;;;;143736;572;46021;-80
2022/01/31 11:40:47;;;;;;;9.25;3.95;;;;;;;;;;143739;588;46020;-80
2022/01/31 11:43:15;;;;;;;9.68;4.40;;;;;;;;;;143732;617;47022;-81
2022/01/31 11:45:44;;;;;;;5.22;3.28;;;;;;;;;;143736;575;45915;-80
2022/01/31 11:48:19;;;;;;;6.75;3.15;;;;;;;;;;143735;606;46020;-79
2022/01/31 11:50:53;;;;;;;5.90;4.05;;;;;;;;;;143737;605;46013;-80
2022/01/31 11:53:36;;;;;;;6.00;2.65;;;;;;;;;;143733;613;47020;-81
2022/01/31 11:56:22;;;;;;;7.97;4.18;;;;;;;;;;143735;637;46012;-81
2022/01/31 11:58:51;;;;;;;6.18;3.45;;;;;;;;;;143737;569;46021;-80
2022/01/31 12:01:23;;;;;;;9.20;4.10;;;;;;;;;;143736;588;46012;-82
2022/01/31 12:04:00;;;;;;;5.43;3.40;;;;;;;;;;143735;586;46022;-81
2022/01/31 12:06:29;;;;;;;10.15;3.53;;;;;;;;;;143736;578;46021;-80
2022/01/31 12:09:11;;;;;;;10.50;4.72;;;;;;;;;;143737;580;45020;-82
2022/01/31 12:12:09;;;;;;;6.50;3.60;;;;;;;;;;143735;626;46019;-81
2022/01/31 12:14:52;;;;;;;7.57;3.83;;;;;;;;;;143733;605;47023;-81
2022/01/31 12:23:38;;;;;;;9.38;3.97;;;;;;;;;;143737;567;46012;-80
2022/01/31 12:26:37;;;;;;;8.75;3.95;;;;;;;;;;143735;590;46020;-81
2022/01/31 12:29:17;;;;;;;8.75;4.80;;;;;;;;;;143736;605;46012;-81
2022/01/31 12:31:50;;;;;;;10.25;5.05;;;;;;;;;;143735;589;46020;-81
2022/01/31 12:34:39;;;;;;;7.25;4.60;;;;;;;;;;143737;644;46019;-81
2022/01/31 12:37:29;;;;;;;8.13;4.25;;;;;;;;;;143734;644;47025;-83
2022/01/31 12:40:57;;;;;;;8.07;3.78;;;;;;;;;;143734;629;46012;-81
2022/01/31 12:43:47;;;;;;;15.10;4.70;;;;;;;;;;143735;573;46015;-81
2022/01/31 12:46:16;;;;;;;9.18;3.92;;;;;;;;;;143739;585;46020;-81
2022/01/31 12:48:43;;;;;;;8.63;3.40;;;;;;;;;;143734;576;46022;-81
2022/01/31 12:51:14;;;;;;;6.32;3.80;;;;;;;;;;143734;596;46013;-80
2022/01/31 12:53:46;;;;;;;9.43;3.60;;;;;;;;;;143733;621;46020;-82
2022/01/31 12:56:42;;;;;;;9.45;5.10;;;;;;;;;;143736;571;46013;-82
2022/01/31 12:59:15;;;;;;;4.85;3.92;;;;;;;;;;143733;605;47025;-82
2022/01/31 13:01:46;;;;;;;7.90;5.63;;;;;;;;;;143735;572;46012;-81
2022/01/31 13:04:27;;;;;;;6.60;3.92;;;;;;;;;;143734;599;46021;-82
2022/01/31 13:06:59;;;;;;;5.95;3.40;;;;;;;;;;143735;587;46012;-80
2022/01/31 13:09:37;;;;;;;6.00;3.97;;;;;;;;;;143733;628;47022;-82
2022/01/31 13:12:10;;;;;;;11.80;4.18;;;;;;;;;;143734;603;46013;-81
2022/01/31 13:15:03;;;;;;;11.97;5.23;;;;;;;;;;143734;574;46020;-81
2022/01/31 13:17:30;;;;;;;11.55;5.35;;;;;;;;;;143738;607;46042;-82
2022/01/31 13:20:02;;;;;;;13.35;6.43;;;;;;;;;;143734;690;46021;-82
2022/01/31 13:22:35;;;;;;;10.50;5.37;;;;;;;;;;143735;601;46012;-80
2022/01/31 13:25:06;;;;;;;;;;;;;;;;;;143740;981;46020;-80
2022/01/31 13:27:42;;;;;;;9.13;5.03;;;;;;;;;;143746;652;46019;-80
2022/01/31 13:30:28;;;;;;;20.65;18.60;;;;;;;;;;143733;565;47023;-82
2022/01/31 13:33:14;;;;;;;;;;;;;;;;;;;;;
2022/01/31 13:35:42;;;;;;;28.87;25.85;;;;;;;;;;143738;893;46014;-81
2022/01/31 13:39:01;;;;;;;10.93;6.72;;;;;;;;;;143736;584;46018;-81
2022/01/31 13:41:41;;;;;;;8.20;5.00;;;;;;;;;;143736;615;46022;-81
2022/01/31 13:44:53;;;;;;;9.77;3.97;;;;;;;;;;143734;673;46010;-82
2022/01/31 13:47:05;;;;;;;10.63;5.80;;;;;;;;;;143729;622;48020;-82
2022/01/31 13:49:39;;;;;;;7.07;4.95;;;;;;;;;;143735;591;46028;-83
2022/01/31 13:52:15;;;;;;;8.95;5.95;;;;;;;;;;143736;646;46020;-83
2022/01/31 13:54:43;;;;;;;11.07;5.30;;;;;;;;;;143733;573;46914;-82
2022/01/31 13:57:12;;;;;;;17.95;5.03;;;;;;;;;;143734;569;46021;-81
2022/01/31 13:59:39;;;;;;;11.10;5.15;;;;;;;;;;143736;575;46018;-80
2022/01/31 14:02:11;;;;;;;6.90;4.95;;;;;;;;;;143734;665;47020;-81
2022/01/31 14:04:40;;;;;;;12.68;5.90;;;;;;;;;;143733;613;46013;-81
2022/01/31 14:07:27;;;;;;;11.73;4.47;;;;;;;;;;143734;577;47020;-82
2022/01/31 14:09:54;;;;;;;9.93;5.37;;;;;;;;;;143737;627;46020;-82
2022/01/31 14:12:24;;;;;;;7.75;4.70;;;;;;;;;;143733;609;47022;-82
2022/01/31 14:14:50;;;;;;;12.20;6.18;;;;;;;;;;143733;566;46915;-81
2022/01/31 14:17:21;;;;;;;6.85;4.65;;;;;;;;;;143734;615;47047;-81
2022/01/31 14:19:53;;;;;;;11.63;4.75;;;;;;;;;;143735;605;46021;-81
2022/01/31 14:22:27;;;;;;;8.25;5.00;;;;;;;;;;143731;603;47020;-82
2022/01/31 14:25:21;;;;;;;8.90;5.30;;;;;;;;;;143736;566;46020;-82
2022/01/31 14:27:54;;;;;;;8.48;5.60;;;;;;;;;;143735;578;46021;-81
2022/01/31 14:30:23;;;;;;;13.55;5.90;;;;;;;;;;143735;573;47010;-82
2022/01/31 14:33:16;;;;;;;14.50;5.90;;;;;;;;;;143734;645;46022;-82
2022/01/31 14:35:43;;;;;;;15.37;5.33;;;;;;;;;;143734;599;46010;-82
2022/01/31 14:41:31;;;;;;;13.20;6.62;;;;;;;;;;143740;570;45021;-81
2022/01/31 14:50:09;;;;;;;10.25;7.18;;;;;;;;;;143734;586;46021;-82
2022/01/31 14:52:40;;;;;;;14.20;6.10;;;;;;;;;;143738;614;46010;-82
2022/01/31 14:55:24;;;;;;;9.20;6.55;;;;;;;;;;143734;611;46022;-81
2022/01/31 14:57:53;;;;;;;11.20;6.35;;;;;;;;;;143736;650;46010;-81
2022/01/31 15:00:25;;;;;;;14.15;7.87;;;;;;;;;;143735;604;47020;-82
2022/01/31 15:02:53;;;;;;;26.30;13.82;;;;;;;;;;143736;576;46019;-81
2022/01/31 15:05:20;;;;;;;26.30;12.45;;;;;;;;;;143732;597;47023;-80
2022/01/31 15:07:47;;;;;;;37.75;15.13;;;;;;;;;;143733;585;46010;-81
2022/01/31 15:10:20;;;;;;;15.75;7.68;;;;;;;;;;143735;585;46020;-82
2022/01/31 15:12:47;;;;;;;20.70;9.45;;;;;;;;;;143738;600;46010;-82
2022/01/31 15:15:20;;;;;;;19.08;9.98;;;;;;;;;;143734;565;46020;-81
2022/01/31 15:17:53;;;;;;;17.85;10.10;;;;;;;;;;143735;589;46034;-82
2022/01/31 15:20:22;;;;;;;18.90;11.15;;;;;;;;;;143736;625;46021;-81
2022/01/31 15:22:56;;;;;;;22.77;11.02;;;;;;;;;;143736;600;46010;-81
2022/01/31 15:25:23;;;;;;;18.70;11.32;;;;;;;;;;143734;597;46020;-80
2022/01/31 15:27:52;;;;;;;12.32;7.60;;;;;;;;;;143735;592;46914;-82
2022/01/31 15:30:19;;;;;;;16.10;10.52;;;;;;;;;;143736;604;46020;-82